14°C Temp
9°C Dewpoint
% Humidity
Temperature
11 KM/H
7 MPH
6 KTS
290°
West North
West

Wind Speed
Despejado
Pressure 1021.92 (hPa) - 30.18 (in)
Visibility 6.2 (mi) - 10.0 (km)

Current Conditions
LEVC
Location 70(km)
Metar :LEVC 292000Z 29006KT CAVOK 14/09 Q1022 NOSIG
Wed 29th January 21:00 pm

Airport
  Metar Aviation API Data Provided by https://www.checkwx.com/ PHP scripts by weather34.com ©2020